LFOP

Rouen Airport

Rouen/Vallée de Seine, France
TAF AMD LFOP 190618Z 1906/2006 02005KT 2500 BR NSC TEMPO 1906/1909 0800 FG VV/// BECMG 1909/1911 CAVOK TEMPO 2000/2006 1500 MIFG
Issued Valid From Valid To
Oct-19 @ 06:18 UTC
(3 hours ago)
Oct-19 @ 06:00 UTC
(3 hours ago)
Oct-20 @ 06:00 UTC
(in 21 hours)
Expired Click to View Oct-19 @ 06:00 to Oct-19 @ 09:00
TAF AMD LFOP 190618Z 1906/2006 02005KT 2500 BR NSC
Wind Visibility Clouds Conditions
20° at 5 knots 2,494 meters
  • No significant clouds
  • Mist
Expired Click to View Oct-19 @ 06:00 to Oct-19 @ 09:00
TEMPO 1906/1909 0800 FG VV///
Visibility Conditions
805 meters
  • Fog
Becoming Oct-19 @ 09:00 to Oct-20 @ 06:00
BECMG 1909/1911 CAVOK
Wind Visibility Clouds Conditions
20° at 5 knots 10,000+ meters
  • No significant clouds
Temporary Oct-20 @ 00:00 to Oct-20 @ 06:00
TEMPO 2000/2006 1500 MIFG
Visibility Conditions
1,497 meters
  • Shallow
  • Fog
TAF AMD LFOP 190618Z 1906/2006 02005KT 2500 BR NSC TEMPO 1906/1909 0800 FG VV/// BECMG 1909/1911 CAVOK TEMPO 2000/2006 1500 MIFG
Issued Oct-19 @ 06:18 UTC
(3 hours ago)
Valid From Oct-19 @ 06:00 UTC
(3 hours ago)
Valid To Oct-20 @ 06:00 UTC
(in 21 hours)
Oct-19 @ 06:00 - Oct-19 @ 09:00
Wind Visibility
20° at 5 knots 2,494 meters
Clouds
  • No significant clouds
Conditions
  • Mist
Oct-19 @ 06:00 - Oct-19 @ 09:00
Conditions
  • Fog
Becoming Oct-19 @ 09:00 - Oct-20 @ 06:00
Wind Visibility
20° at 5 knots 10,000+ meters
Clouds
  • No significant clouds
Conditions
Temporary Oct-20 @ 00:00 - Oct-20 @ 06:00
Conditions
  • Shallow
  • Fog